sensor_id;sensor_type;location;lat;lon;timestamp;temperature;humidity
25280;DHT22;13225;47.804;12.116;2023-04-24T00:02:03;10.40;99.90
25280;DHT22;13225;47.804;12.116;2023-04-24T00:04:29;10.30;99.90
25280;DHT22;13225;47.804;12.116;2023-04-24T00:06:55;10.30;99.90
25280;DHT22;13225;47.804;12.116;2023-04-24T00:09:22;10.30;99.90
25280;DHT22;13225;47.804;12.116;2023-04-24T00:11:48;10.30;99.90
25280;DHT22;13225;47.804;12.116;2023-04-24T00:14:14;10.30;99.90
25280;DHT22;13225;47.804;12.116;2023-04-24T00:16:39;10.20;99.90
25280;DHT22;13225;47.804;12.116;2023-04-24T00:19:05;10.30;99.90
25280;DHT22;13225;47.804;12.116;2023-04-24T00:21:32;10.30;99.90
25280;DHT22;13225;47.804;12.116;2023-04-24T00:23:58;10.30;99.90
25280;DHT22;13225;47.804;12.116;2023-04-24T00:26:23;10.40;99.90
25280;DHT22;13225;47.804;12.116;2023-04-24T00:28:49;10.40;99.90
25280;DHT22;13225;47.804;12.116;2023-04-24T00:31:15;10.40;99.90
25280;DHT22;13225;47.804;12.116;2023-04-24T00:33:41;10.40;99.90
25280;DHT22;13225;47.804;12.116;2023-04-24T00:36:06;10.40;99.90
25280;DHT22;13225;47.804;12.116;2023-04-24T00:38:32;10.30;99.90
25280;DHT22;13225;47.804;12.116;2023-04-24T00:40:58;10.30;99.90
25280;DHT22;13225;47.804;12.116;2023-04-24T00:43:24;10.30;99.90
25280;DHT22;13225;47.804;12.116;2023-04-24T00:45:51;10.30;99.90
25280;DHT22;13225;47.804;12.116;2023-04-24T00:48:16;10.20;99.90
25280;DHT22;13225;47.804;12.116;2023-04-24T00:50:42;10.30;99.90
25280;DHT22;13225;47.804;12.116;2023-04-24T00:53:08;10.20;99.90
25280;DHT22;13225;47.804;12.116;2023-04-24T00:55:34;10.20;99.90
25280;DHT22;13225;47.804;12.116;2023-04-24T00:58:02;10.20;99.90
25280;DHT22;13225;47.804;12.116;2023-04-24T01:00:28;10.20;99.90
25280;DHT22;13225;47.804;12.116;2023-04-24T01:02:55;10.10;99.90
25280;DHT22;13225;47.804;12.116;2023-04-24T01:05:21;10.00;99.90
25280;DHT22;13225;47.804;12.116;2023-04-24T01:07:46;10.00;99.90
25280;DHT22;13225;47.804;12.116;2023-04-24T01:10:14;10.00;99.90
25280;DHT22;13225;47.804;12.116;2023-04-24T01:12:40;10.00;99.90
25280;DHT22;13225;47.804;12.116;2023-04-24T01:15:06;10.00;99.90
25280;DHT22;13225;47.804;12.116;2023-04-24T01:17:33;9.90;99.90
25280;DHT22;13225;47.804;12.116;2023-04-24T01:19:59;9.90;99.90
25280;DHT22;13225;47.804;12.116;2023-04-24T01:22:26;9.90;99.90
25280;DHT22;13225;47.804;12.116;2023-04-24T01:24:52;9.90;99.90
25280;DHT22;13225;47.804;12.116;2023-04-24T01:27:19;9.80;99.90
25280;DHT22;13225;47.804;12.116;2023-04-24T01:29:45;9.80;99.90
25280;DHT22;13225;47.804;12.116;2023-04-24T01:32:11;9.80;99.90
25280;DHT22;13225;47.804;12.116;2023-04-24T01:34:37;9.80;99.90
25280;DHT22;13225;47.804;12.116;2023-04-24T01:37:03;9.80;99.90
25280;DHT22;13225;47.804;12.116;2023-04-24T01:39:30;9.80;99.90
25280;DHT22;13225;47.804;12.116;2023-04-24T01:41:56;9.90;99.90
25280;DHT22;13225;47.804;12.116;2023-04-24T01:44:22;9.90;99.90
25280;DHT22;13225;47.804;12.116;2023-04-24T01:46:48;9.90;99.90
25280;DHT22;13225;47.804;12.116;2023-04-24T01:49:14;9.90;99.90
25280;DHT22;13225;47.804;12.116;2023-04-24T01:51:39;9.90;99.90
25280;DHT22;13225;47.804;12.116;2023-04-24T01:54:05;9.80;99.90
25280;DHT22;13225;47.804;12.116;2023-04-24T01:56:33;9.80;99.90
25280;DHT22;13225;47.804;12.116;2023-04-24T01:58:59;9.80;99.90
25280;DHT22;13225;47.804;12.116;2023-04-24T02:01:25;9.80;99.90
25280;DHT22;13225;47.804;12.116;2023-04-24T02:03:51;9.80;99.90
25280;DHT22;13225;47.804;12.116;2023-04-24T02:06:17;9.80;99.90
25280;DHT22;13225;47.804;12.116;2023-04-24T02:08:42;9.80;99.90
25280;DHT22;13225;47.804;12.116;2023-04-24T02:11:11;9.80;99.90
25280;DHT22;13225;47.804;12.116;2023-04-24T02:13:36;9.90;99.90
25280;DHT22;13225;47.804;12.116;2023-04-24T02:16:02;9.80;99.90
25280;DHT22;13225;47.804;12.116;2023-04-24T02:18:28;9.80;99.90
25280;DHT22;13225;47.804;12.116;2023-04-24T02:20:53;9.80;99.90
25280;DHT22;13225;47.804;12.116;2023-04-24T02:23:19;9.80;99.90
25280;DHT22;13225;47.804;12.116;2023-04-24T02:25:45;9.80;99.90
25280;DHT22;13225;47.804;12.116;2023-04-24T02:28:11;9.80;99.90
25280;DHT22;13225;47.804;12.116;2023-04-24T02:30:36;9.80;99.90
25280;DHT22;13225;47.804;12.116;2023-04-24T02:33:02;9.80;99.90
25280;DHT22;13225;47.804;12.116;2023-04-24T02:35:28;9.80;99.90
25280;DHT22;13225;47.804;12.116;2023-04-24T02:37:54;9.80;99.90
25280;DHT22;13225;47.804;12.116;2023-04-24T02:40:19;9.80;99.90
25280;DHT22;13225;47.804;12.116;2023-04-24T02:42:45;9.70;99.90
25280;DHT22;13225;47.804;12.116;2023-04-24T02:45:10;9.80;99.90
25280;DHT22;13225;47.804;12.116;2023-04-24T02:47:36;9.70;99.90
25280;DHT22;13225;47.804;12.116;2023-04-24T02:50:03;9.80;99.90
25280;DHT22;13225;47.804;12.116;2023-04-24T02:52:28;9.70;99.90
25280;DHT22;13225;47.804;12.116;2023-04-24T02:54:54;9.70;99.90
25280;DHT22;13225;47.804;12.116;2023-04-24T02:57:20;9.70;99.90
25280;DHT22;13225;47.804;12.116;2023-04-24T02:59:45;9.70;99.90
25280;DHT22;13225;47.804;12.116;2023-04-24T03:02:11;9.70;99.90
25280;DHT22;13225;47.804;12.116;2023-04-24T03:04:36;9.70;99.90
25280;DHT22;13225;47.804;12.116;2023-04-24T03:07:02;9.80;99.90
25280;DHT22;13225;47.804;12.116;2023-04-24T03:09:27;9.80;99.90
25280;DHT22;13225;47.804;12.116;2023-04-24T03:11:53;9.80;99.90
25280;DHT22;13225;47.804;12.116;2023-04-24T03:14:19;9.90;99.90
25280;DHT22;13225;47.804;12.116;2023-04-24T03:16:44;9.80;99.90
25280;DHT22;13225;47.804;12.116;2023-04-24T03:19:10;9.80;99.90
25280;DHT22;13225;47.804;12.116;2023-04-24T03:21:36;9.80;99.90
25280;DHT22;13225;47.804;12.116;2023-04-24T03:24:06;9.80;99.90
25280;DHT22;13225;47.804;12.116;2023-04-24T03:26:32;9.90;99.90
25280;DHT22;13225;47.804;12.116;2023-04-24T03:28:58;9.90;99.90
25280;DHT22;13225;47.804;12.116;2023-04-24T03:31:23;9.80;99.90
25280;DHT22;13225;47.804;12.116;2023-04-24T03:33:49;9.80;99.90
25280;DHT22;13225;47.804;12.116;2023-04-24T03:36:14;9.80;99.90
25280;DHT22;13225;47.804;12.116;2023-04-24T03:38:40;9.70;99.90
25280;DHT22;13225;47.804;12.116;2023-04-24T03:41:06;9.70;99.90
25280;DHT22;13225;47.804;12.116;2023-04-24T03:43:31;9.70;99.90
25280;DHT22;13225;47.804;12.116;2023-04-24T03:45:58;9.70;99.90
25280;DHT22;13225;47.804;12.116;2023-04-24T03:48:24;9.60;99.90
25280;DHT22;13225;47.804;12.116;2023-04-24T03:50:50;9.60;99.90
25280;DHT22;13225;47.804;12.116;2023-04-24T03:53:15;9.60;99.90
25280;DHT22;13225;47.804;12.116;2023-04-24T03:55:41;9.60;99.90
25280;DHT22;13225;47.804;12.116;2023-04-24T03:58:06;9.60;99.90
25280;DHT22;13225;47.804;12.116;2023-04-24T04:00:32;9.60;99.90
25280;DHT22;13225;47.804;12.116;2023-04-24T04:02:58;9.60;99.90
25280;DHT22;13225;47.804;12.116;2023-04-24T04:05:24;9.60;99.90
25280;DHT22;13225;47.804;12.116;2023-04-24T04:07:49;9.60;99.90
25280;DHT22;13225;47.804;12.116;2023-04-24T04:10:15;9.60;99.90
25280;DHT22;13225;47.804;12.116;2023-04-24T04:12:42;9.60;99.90
25280;DHT22;13225;47.804;12.116;2023-04-24T04:15:08;9.60;99.90
25280;DHT22;13225;47.804;12.116;2023-04-24T04:17:33;9.50;99.90
25280;DHT22;13225;47.804;12.116;2023-04-24T04:19:59;9.50;99.90
25280;DHT22;13225;47.804;12.116;2023-04-24T04:22:25;9.40;99.90
25280;DHT22;13225;47.804;12.116;2023-04-24T04:24:51;9.40;99.90
25280;DHT22;13225;47.804;12.116;2023-04-24T04:27:16;9.40;99.90
25280;DHT22;13225;47.804;12.116;2023-04-24T04:29:44;9.50;99.90
25280;DHT22;13225;47.804;12.116;2023-04-24T04:32:09;9.40;99.90
25280;DHT22;13225;47.804;12.116;2023-04-24T04:34:35;9.40;99.90
25280;DHT22;13225;47.804;12.116;2023-04-24T04:37:03;9.40;99.90
25280;DHT22;13225;47.804;12.116;2023-04-24T04:39:28;9.40;99.90
25280;DHT22;13225;47.804;12.116;2023-04-24T04:41:55;9.40;99.90
25280;DHT22;13225;47.804;12.116;2023-04-24T04:44:20;9.40;99.90
25280;DHT22;13225;47.804;12.116;2023-04-24T04:46:46;9.40;99.90
25280;DHT22;13225;47.804;12.116;2023-04-24T04:49:12;9.40;99.90
25280;DHT22;13225;47.804;12.116;2023-04-24T04:51:38;9.40;99.90
25280;DHT22;13225;47.804;12.116;2023-04-24T04:54:04;9.40;99.90
25280;DHT22;13225;47.804;12.116;2023-04-24T04:56:30;9.40;99.90
25280;DHT22;13225;47.804;12.116;2023-04-24T04:58:56;9.40;99.90
25280;DHT22;13225;47.804;12.116;2023-04-24T05:01:21;9.40;99.90
25280;DHT22;13225;47.804;12.116;2023-04-24T05:03:48;9.40;99.90
25280;DHT22;13225;47.804;12.116;2023-04-24T05:06:13;9.30;99.90
25280;DHT22;13225;47.804;12.116;2023-04-24T05:08:39;9.30;99.90
25280;DHT22;13225;47.804;12.116;2023-04-24T05:11:05;9.30;99.90
25280;DHT22;13225;47.804;12.116;2023-04-24T05:13:31;9.30;99.90
25280;DHT22;13225;47.804;12.116;2023-04-24T05:15:57;9.30;99.90
25280;DHT22;13225;47.804;12.116;2023-04-24T05:18:23;9.40;99.90
25280;DHT22;13225;47.804;12.116;2023-04-24T05:20:48;9.40;99.90
25280;DHT22;13225;47.804;12.116;2023-04-24T05:23:14;9.40;99.90
25280;DHT22;13225;47.804;12.116;2023-04-24T05:25:39;9.40;99.90
25280;DHT22;13225;47.804;12.116;2023-04-24T05:28:06;9.40;99.90
25280;DHT22;13225;47.804;12.116;2023-04-24T05:30:32;9.40;99.90
25280;DHT22;13225;47.804;12.116;2023-04-24T05:32:57;9.40;99.90
25280;DHT22;13225;47.804;12.116;2023-04-24T05:35:23;9.40;99.90
25280;DHT22;13225;47.804;12.116;2023-04-24T05:37:49;9.40;99.90
25280;DHT22;13225;47.804;12.116;2023-04-24T05:40:14;9.40;99.90
25280;DHT22;13225;47.804;12.116;2023-04-24T05:42:40;9.40;99.90
25280;DHT22;13225;47.804;12.116;2023-04-24T05:45:06;9.40;99.90
25280;DHT22;13225;47.804;12.116;2023-04-24T05:47:32;9.40;99.90
25280;DHT22;13225;47.804;12.116;2023-04-24T05:49:57;9.40;99.90
25280;DHT22;13225;47.804;12.116;2023-04-24T05:52:23;9.40;99.90
25280;DHT22;13225;47.804;12.116;2023-04-24T05:54:48;9.40;99.90
25280;DHT22;13225;47.804;12.116;2023-04-24T05:57:14;9.40;99.90
25280;DHT22;13225;47.804;12.116;2023-04-24T05:59:40;9.40;99.90
25280;DHT22;13225;47.804;12.116;2023-04-24T06:02:06;9.40;99.90
25280;DHT22;13225;47.804;12.116;2023-04-24T06:04:32;9.40;99.90
25280;DHT22;13225;47.804;12.116;2023-04-24T06:06:58;9.50;99.90
25280;DHT22;13225;47.804;12.116;2023-04-24T06:09:23;9.60;99.90
25280;DHT22;13225;47.804;12.116;2023-04-24T06:11:50;9.70;99.90
25280;DHT22;13225;47.804;12.116;2023-04-24T06:14:18;9.80;99.90
25280;DHT22;13225;47.804;12.116;2023-04-24T06:16:43;9.80;99.90
25280;DHT22;13225;47.804;12.116;2023-04-24T06:19:09;9.80;99.90
25280;DHT22;13225;47.804;12.116;2023-04-24T06:21:35;9.90;99.90
25280;DHT22;13225;47.804;12.116;2023-04-24T06:24:01;9.80;99.90
25280;DHT22;13225;47.804;12.116;2023-04-24T06:26:27;9.80;99.90
25280;DHT22;13225;47.804;12.116;2023-04-24T06:28:53;9.80;99.90
25280;DHT22;13225;47.804;12.116;2023-04-24T06:31:21;9.90;99.90
25280;DHT22;13225;47.804;12.116;2023-04-24T06:33:48;10.00;99.90
25280;DHT22;13225;47.804;12.116;2023-04-24T06:36:14;10.10;99.90
25280;DHT22;13225;47.804;12.116;2023-04-24T06:38:41;10.20;99.90
25280;DHT22;13225;47.804;12.116;2023-04-24T06:41:06;10.30;99.90
25280;DHT22;13225;47.804;12.116;2023-04-24T06:43:32;10.30;99.90
25280;DHT22;13225;47.804;12.116;2023-04-24T06:45:59;10.30;99.90
25280;DHT22;13225;47.804;12.116;2023-04-24T06:48:25;10.50;99.90
25280;DHT22;13225;47.804;12.116;2023-04-24T06:50:51;10.50;99.90
25280;DHT22;13225;47.804;12.116;2023-04-24T06:53:17;10.70;99.90
25280;DHT22;13225;47.804;12.116;2023-04-24T06:55:43;10.80;99.90
25280;DHT22;13225;47.804;12.116;2023-04-24T06:58:10;10.80;99.90
25280;DHT22;13225;47.804;12.116;2023-04-24T07:00:36;10.80;99.90
25280;DHT22;13225;47.804;12.116;2023-04-24T07:03:04;11.00;99.90
25280;DHT22;13225;47.804;12.116;2023-04-24T07:05:32;11.00;99.90
25280;DHT22;13225;47.804;12.116;2023-04-24T07:08:00;11.20;99.90
25280;DHT22;13225;47.804;12.116;2023-04-24T07:10:26;11.20;99.90
25280;DHT22;13225;47.804;12.116;2023-04-24T07:12:54;11.10;99.90
25280;DHT22;13225;47.804;12.116;2023-04-24T07:15:19;11.00;99.90
25280;DHT22;13225;47.804;12.116;2023-04-24T07:17:46;11.00;99.90
25280;DHT22;13225;47.804;12.116;2023-04-24T07:20:11;11.10;99.90
25280;DHT22;13225;47.804;12.116;2023-04-24T07:22:38;11.10;99.90
25280;DHT22;13225;47.804;12.116;2023-04-24T07:25:04;11.10;99.90
25280;DHT22;13225;47.804;12.116;2023-04-24T07:27:30;11.30;99.90
25280;DHT22;13225;47.804;12.116;2023-04-24T07:29:55;11.40;99.90
25280;DHT22;13225;47.804;12.116;2023-04-24T07:32:21;11.30;99.90
25280;DHT22;13225;47.804;12.116;2023-04-24T07:34:47;11.20;99.90
25280;DHT22;13225;47.804;12.116;2023-04-24T07:37:12;11.30;99.90
25280;DHT22;13225;47.804;12.116;2023-04-24T07:39:38;11.20;99.90
25280;DHT22;13225;47.804;12.116;2023-04-24T07:42:03;11.20;99.90
25280;DHT22;13225;47.804;12.116;2023-04-24T07:44:29;11.40;99.90
25280;DHT22;13225;47.804;12.116;2023-04-24T07:46:55;11.40;99.90
25280;DHT22;13225;47.804;12.116;2023-04-24T07:49:21;11.60;99.90
25280;DHT22;13225;47.804;12.116;2023-04-24T07:51:46;11.40;99.90
25280;DHT22;13225;47.804;12.116;2023-04-24T07:54:12;11.40;99.90
25280;DHT22;13225;47.804;12.116;2023-04-24T07:56:38;11.30;99.90
25280;DHT22;13225;47.804;12.116;2023-04-24T07:59:04;11.40;99.90
25280;DHT22;13225;47.804;12.116;2023-04-24T08:01:30;11.30;99.90
25280;DHT22;13225;47.804;12.116;2023-04-24T08:03:56;11.20;99.90
25280;DHT22;13225;47.804;12.116;2023-04-24T08:06:21;11.20;99.90
25280;DHT22;13225;47.804;12.116;2023-04-24T08:08:47;11.30;99.90
25280;DHT22;13225;47.804;12.116;2023-04-24T08:11:13;11.50;99.90
25280;DHT22;13225;47.804;12.116;2023-04-24T08:13:38;11.70;99.90
25280;DHT22;13225;47.804;12.116;2023-04-24T08:16:04;11.70;99.90
25280;DHT22;13225;47.804;12.116;2023-04-24T08:18:30;11.80;99.90
25280;DHT22;13225;47.804;12.116;2023-04-24T08:20:55;11.70;99.90
25280;DHT22;13225;47.804;12.116;2023-04-24T08:23:26;11.80;99.90
25280;DHT22;13225;47.804;12.116;2023-04-24T08:25:52;11.70;99.90
25280;DHT22;13225;47.804;12.116;2023-04-24T08:28:17;11.70;99.90
25280;DHT22;13225;47.804;12.116;2023-04-24T08:30:46;11.60;99.90
25280;DHT22;13225;47.804;12.116;2023-04-24T08:33:12;11.50;99.90
25280;DHT22;13225;47.804;12.116;2023-04-24T08:35:38;11.60;99.90
25280;DHT22;13225;47.804;12.116;2023-04-24T08:38:04;11.40;99.90
25280;DHT22;13225;47.804;12.116;2023-04-24T08:40:31;11.20;99.90
25280;DHT22;13225;47.804;12.116;2023-04-24T08:42:59;11.10;99.90
25280;DHT22;13225;47.804;12.116;2023-04-24T08:45:25;11.10;99.90
25280;DHT22;13225;47.804;12.116;2023-04-24T08:47:53;11.00;99.90
25280;DHT22;13225;47.804;12.116;2023-04-24T08:50:20;11.10;99.90
25280;DHT22;13225;47.804;12.116;2023-04-24T08:52:47;11.20;99.90
25280;DHT22;13225;47.804;12.116;2023-04-24T08:55:15;11.30;99.90
25280;DHT22;13225;47.804;12.116;2023-04-24T08:57:44;11.40;99.90
25280;DHT22;13225;47.804;12.116;2023-04-24T09:00:11;11.40;99.90
25280;DHT22;13225;47.804;12.116;2023-04-24T09:02:36;11.40;99.90
25280;DHT22;13225;47.804;12.116;2023-04-24T09:05:04;11.40;99.90
25280;DHT22;13225;47.804;12.116;2023-04-24T09:07:32;11.40;99.90
25280;DHT22;13225;47.804;12.116;2023-04-24T09:09:59;11.50;99.90
25280;DHT22;13225;47.804;12.116;2023-04-24T09:12:26;11.60;99.90
25280;DHT22;13225;47.804;12.116;2023-04-24T09:14:52;11.50;99.90
25280;DHT22;13225;47.804;12.116;2023-04-24T09:17:18;11.40;99.90
25280;DHT22;13225;47.804;12.116;2023-04-24T09:19:44;11.10;99.90
25280;DHT22;13225;47.804;12.116;2023-04-24T09:22:10;11.00;99.90
25280;DHT22;13225;47.804;12.116;2023-04-24T09:24:36;11.00;99.90
25280;DHT22;13225;47.804;12.116;2023-04-24T09:27:02;11.20;99.90
25280;DHT22;13225;47.804;12.116;2023-04-24T09:29:28;11.40;99.90
25280;DHT22;13225;47.804;12.116;2023-04-24T09:31:53;11.40;99.90
25280;DHT22;13225;47.804;12.116;2023-04-24T09:34:23;11.60;99.90
25280;DHT22;13225;47.804;12.116;2023-04-24T09:36:49;11.70;99.90
25280;DHT22;13225;47.804;12.116;2023-04-24T09:39:16;11.80;99.90
25280;DHT22;13225;47.804;12.116;2023-04-24T09:41:45;11.70;99.90
25280;DHT22;13225;47.804;12.116;2023-04-24T09:44:19;11.60;99.90
25280;DHT22;13225;47.804;12.116;2023-04-24T09:46:56;11.50;99.90
25280;DHT22;13225;47.804;12.116;2023-04-24T09:49:23;11.50;99.90
25280;DHT22;13225;47.804;12.116;2023-04-24T09:51:49;11.60;99.90
25280;DHT22;13225;47.804;12.116;2023-04-24T09:54:20;11.80;99.90
25280;DHT22;13225;47.804;12.116;2023-04-24T09:56:47;11.70;99.90
25280;DHT22;13225;47.804;12.116;2023-04-24T09:59:14;11.80;99.90
25280;DHT22;13225;47.804;12.116;2023-04-24T10:01:40;12.00;99.90
25280;DHT22;13225;47.804;12.116;2023-04-24T10:06:44;12.30;99.90
25280;DHT22;13225;47.804;12.116;2023-04-24T10:09:09;12.40;99.90
25280;DHT22;13225;47.804;12.116;2023-04-24T10:11:37;12.30;99.90
25280;DHT22;13225;47.804;12.116;2023-04-24T10:14:03;12.40;99.90
25280;DHT22;13225;47.804;12.116;2023-04-24T10:16:29;12.70;99.90
25280;DHT22;13225;47.804;12.116;2023-04-24T10:18:59;12.50;99.90
25280;DHT22;13225;47.804;12.116;2023-04-24T10:21:25;12.60;99.90
25280;DHT22;13225;47.804;12.116;2023-04-24T10:23:52;12.70;99.90
25280;DHT22;13225;47.804;12.116;2023-04-24T10:26:19;13.10;99.90
25280;DHT22;13225;47.804;12.116;2023-04-24T10:28:46;12.90;99.90
25280;DHT22;13225;47.804;12.116;2023-04-24T10:31:13;12.90;99.90
25280;DHT22;13225;47.804;12.116;2023-04-24T10:33:43;13.00;99.90
25280;DHT22;13225;47.804;12.116;2023-04-24T10:36:13;13.30;99.90
25280;DHT22;13225;47.804;12.116;2023-04-24T10:38:40;13.20;99.90
25280;DHT22;13225;47.804;12.116;2023-04-24T10:41:10;13.30;99.90
25280;DHT22;13225;47.804;12.116;2023-04-24T10:43:41;13.40;99.90
25280;DHT22;13225;47.804;12.116;2023-04-24T10:46:08;13.70;99.90
25280;DHT22;13225;47.804;12.116;2023-04-24T10:48:36;13.50;99.90
25280;DHT22;13225;47.804;12.116;2023-04-24T10:51:11;13.30;99.90
25280;DHT22;13225;47.804;12.116;2023-04-24T10:53:38;13.60;99.90
25280;DHT22;13225;47.804;12.116;2023-04-24T10:56:06;13.70;99.90
25280;DHT22;13225;47.804;12.116;2023-04-24T10:58:49;13.70;99.90
25280;DHT22;13225;47.804;12.116;2023-04-24T11:01:26;13.50;99.90
25280;DHT22;13225;47.804;12.116;2023-04-24T11:04:00;13.10;99.90
25280;DHT22;13225;47.804;12.116;2023-04-24T11:06:34;13.10;99.90
25280;DHT22;13225;47.804;12.116;2023-04-24T11:09:09;13.50;99.90
25280;DHT22;13225;47.804;12.116;2023-04-24T11:11:36;13.60;99.90
25280;DHT22;13225;47.804;12.116;2023-04-24T11:14:14;13.70;99.90
25280;DHT22;13225;47.804;12.116;2023-04-24T11:16:45;13.40;99.90
25280;DHT22;13225;47.804;12.116;2023-04-24T11:21:47;13.40;99.90
25280;DHT22;13225;47.804;12.116;2023-04-24T11:24:32;13.60;99.90
25280;DHT22;13225;47.804;12.116;2023-04-24T11:27:21;14.00;99.90
25280;DHT22;13225;47.804;12.116;2023-04-24T11:32:28;14.10;99.90
25280;DHT22;13225;47.804;12.116;2023-04-24T11:37:22;14.00;99.90
25280;DHT22;13225;47.804;12.116;2023-04-24T11:39:56;14.10;99.90
25280;DHT22;13225;47.804;12.116;2023-04-24T11:42:22;14.40;99.90
25280;DHT22;13225;47.804;12.116;2023-04-24T11:44:49;14.30;99.90
25280;DHT22;13225;47.804;12.116;2023-04-24T11:47:15;14.40;99.90
25280;DHT22;13225;47.804;12.116;2023-04-24T11:49:41;14.50;99.90
25280;DHT22;13225;47.804;12.116;2023-04-24T11:52:07;14.70;99.90
25280;DHT22;13225;47.804;12.116;2023-04-24T11:54:32;14.60;99.90
25280;DHT22;13225;47.804;12.116;2023-04-24T11:56:58;14.10;99.90
25280;DHT22;13225;47.804;12.116;2023-04-24T11:59:24;13.80;99.90
25280;DHT22;13225;47.804;12.116;2023-04-24T12:01:49;13.80;99.90
25280;DHT22;13225;47.804;12.116;2023-04-24T12:04:17;13.40;99.90
25280;DHT22;13225;47.804;12.116;2023-04-24T12:07:02;12.70;99.90
25280;DHT22;13225;47.804;12.116;2023-04-24T12:09:28;11.50;99.90
25280;DHT22;13225;47.804;12.116;2023-04-24T12:11:54;10.80;99.90
25280;DHT22;13225;47.804;12.116;2023-04-24T12:14:23;10.30;99.90
25280;DHT22;13225;47.804;12.116;2023-04-24T12:16:50;10.20;99.90
25280;DHT22;13225;47.804;12.116;2023-04-24T12:19:22;10.20;99.90
25280;DHT22;13225;47.804;12.116;2023-04-24T12:22:05;10.20;99.90
25280;DHT22;13225;47.804;12.116;2023-04-24T12:24:31;10.60;99.90
25280;DHT22;13225;47.804;12.116;2023-04-24T12:26:58;10.90;99.90
25280;DHT22;13225;47.804;12.116;2023-04-24T12:29:24;11.20;99.90
25280;DHT22;13225;47.804;12.116;2023-04-24T12:31:51;11.80;99.90
25280;DHT22;13225;47.804;12.116;2023-04-24T12:34:24;12.10;99.90
25280;DHT22;13225;47.804;12.116;2023-04-24T12:36:50;12.50;99.90
25280;DHT22;13225;47.804;12.116;2023-04-24T12:39:17;12.90;99.90
25280;DHT22;13225;47.804;12.116;2023-04-24T12:42:10;14.10;99.90
25280;DHT22;13225;47.804;12.116;2023-04-24T12:44:36;14.50;99.90
25280;DHT22;13225;47.804;12.116;2023-04-24T12:47:02;14.40;99.90
25280;DHT22;13225;47.804;12.116;2023-04-24T12:49:29;15.10;99.90
25280;DHT22;13225;47.804;12.116;2023-04-24T12:51:55;15.30;99.90
25280;DHT22;13225;47.804;12.116;2023-04-24T12:54:21;15.40;99.90
25280;DHT22;13225;47.804;12.116;2023-04-24T12:56:47;14.90;99.90
25280;DHT22;13225;47.804;12.116;2023-04-24T12:59:13;14.80;99.90
25280;DHT22;13225;47.804;12.116;2023-04-24T13:01:38;14.80;99.90
25280;DHT22;13225;47.804;12.116;2023-04-24T13:04:05;14.90;99.90
25280;DHT22;13225;47.804;12.116;2023-04-24T13:06:30;14.60;99.90
25280;DHT22;13225;47.804;12.116;2023-04-24T13:08:56;15.30;99.90
25280;DHT22;13225;47.804;12.116;2023-04-24T13:11:23;15.10;99.90
25280;DHT22;13225;47.804;12.116;2023-04-24T13:13:49;15.40;99.90
25280;DHT22;13225;47.804;12.116;2023-04-24T13:16:15;15.40;99.90
25280;DHT22;13225;47.804;12.116;2023-04-24T13:18:40;14.70;99.90
25280;DHT22;13225;47.804;12.116;2023-04-24T13:21:06;14.90;99.90
25280;DHT22;13225;47.804;12.116;2023-04-24T13:23:32;15.10;99.90
25280;DHT22;13225;47.804;12.116;2023-04-24T13:25:57;14.50;99.90
25280;DHT22;13225;47.804;12.116;2023-04-24T13:28:26;14.30;99.90
25280;DHT22;13225;47.804;12.116;2023-04-24T13:30:53;13.90;99.90
25280;DHT22;13225;47.804;12.116;2023-04-24T13:33:18;13.60;99.90
25280;DHT22;13225;47.804;12.116;2023-04-24T13:35:44;13.60;99.90
25280;DHT22;13225;47.804;12.116;2023-04-24T13:38:09;13.60;99.90
25280;DHT22;13225;47.804;12.116;2023-04-24T13:40:35;13.50;99.90
25280;DHT22;13225;47.804;12.116;2023-04-24T13:43:01;13.60;99.90
25280;DHT22;13225;47.804;12.116;2023-04-24T13:45:27;13.30;99.90
25280;DHT22;13225;47.804;12.116;2023-04-24T13:47:53;12.70;99.90
25280;DHT22;13225;47.804;12.116;2023-04-24T13:50:22;12.50;99.90
25280;DHT22;13225;47.804;12.116;2023-04-24T13:52:48;12.40;99.90
25280;DHT22;13225;47.804;12.116;2023-04-24T13:55:13;13.00;99.90
25280;DHT22;13225;47.804;12.116;2023-04-24T13:57:39;13.30;99.90
25280;DHT22;13225;47.804;12.116;2023-04-24T14:00:05;13.30;99.90
25280;DHT22;13225;47.804;12.116;2023-04-24T14:02:34;13.30;99.90
25280;DHT22;13225;47.804;12.116;2023-04-24T14:05:00;13.70;99.90
25280;DHT22;13225;47.804;12.116;2023-04-24T14:07:25;13.10;99.90
25280;DHT22;13225;47.804;12.116;2023-04-24T14:09:51;12.60;99.90
25280;DHT22;13225;47.804;12.116;2023-04-24T14:12:17;12.40;99.90
25280;DHT22;13225;47.804;12.116;2023-04-24T14:14:45;12.50;99.90
25280;DHT22;13225;47.804;12.116;2023-04-24T14:17:11;12.40;99.90
25280;DHT22;13225;47.804;12.116;2023-04-24T14:19:36;12.40;99.90
25280;DHT22;13225;47.804;12.116;2023-04-24T14:22:02;12.70;99.90
25280;DHT22;13225;47.804;12.116;2023-04-24T14:24:28;13.10;99.90
25280;DHT22;13225;47.804;12.116;2023-04-24T14:26:53;13.80;99.90
25280;DHT22;13225;47.804;12.116;2023-04-24T14:29:19;14.90;99.90
25280;DHT22;13225;47.804;12.116;2023-04-24T14:31:45;15.00;99.90
25280;DHT22;13225;47.804;12.116;2023-04-24T14:34:11;15.10;99.90
25280;DHT22;13225;47.804;12.116;2023-04-24T14:36:36;14.80;99.90
25280;DHT22;13225;47.804;12.116;2023-04-24T14:39:02;15.10;99.90
25280;DHT22;13225;47.804;12.116;2023-04-24T14:41:32;15.20;99.90
25280;DHT22;13225;47.804;12.116;2023-04-24T14:44:04;15.50;99.90
25280;DHT22;13225;47.804;12.116;2023-04-24T14:46:30;15.90;99.90
25280;DHT22;13225;47.804;12.116;2023-04-24T14:48:56;16.10;99.90
25280;DHT22;13225;47.804;12.116;2023-04-24T14:51:22;16.60;99.90
25280;DHT22;13225;47.804;12.116;2023-04-24T14:53:48;16.30;99.90
25280;DHT22;13225;47.804;12.116;2023-04-24T14:56:14;15.70;99.90
25280;DHT22;13225;47.804;12.116;2023-04-24T14:58:40;15.70;99.90
25280;DHT22;13225;47.804;12.116;2023-04-24T15:01:06;15.80;99.90
25280;DHT22;13225;47.804;12.116;2023-04-24T15:03:31;15.50;99.90
25280;DHT22;13225;47.804;12.116;2023-04-24T15:05:57;15.00;99.90
25280;DHT22;13225;47.804;12.116;2023-04-24T15:08:22;14.50;99.90
25280;DHT22;13225;47.804;12.116;2023-04-24T15:10:49;14.10;99.90
25280;DHT22;13225;47.804;12.116;2023-04-24T15:13:14;13.60;99.90
25280;DHT22;13225;47.804;12.116;2023-04-24T15:15:40;13.50;99.90
25280;DHT22;13225;47.804;12.116;2023-04-24T15:18:08;13.10;99.90
25280;DHT22;13225;47.804;12.116;2023-04-24T15:20:36;13.00;99.90
25280;DHT22;13225;47.804;12.116;2023-04-24T15:23:08;13.50;99.90
25280;DHT22;13225;47.804;12.116;2023-04-24T15:25:34;14.50;99.90
25280;DHT22;13225;47.804;12.116;2023-04-24T15:27:59;14.80;99.90